Terminal Aerodrome Forecast
Issued by NWS

Home | Current Version | Previous Version | Text Only | Print | Product List | Glossary Off
Versions: 1 2 3 4 5 6 7 8 9 10 11 12 13 14 15 16 17 18 19 20

000
FTUS43 KICT 270901 AAA
TAFSLN
TAF AMD
KSLN 270901Z 2709/2806 19010KT P6SM BKN040
     FM271000 26012KT P6SM VCTS SCT020 OVC035CB
      TEMPO 2710/2712 VRB15G25KT 4SM TSRA OVC020CB
     FM271500 30016G24KT P6SM SCT020 BKN035=

USA.gov is the U.S. government's official web portal to all federal, state and local government web resources and services.